• Join FlightAware (Why Join?)
  • Login
  • US Flag 
09:36AM EST


 

Airport Tracker/Info


-or-


 

Live Flight TrackerFlight Track Log ✈ EJM826 ✈ 07-Oct-2013 ✈ KHOU - KLAS

Flight Track Log - Related Links

Times and Time Zones

All times are in EDT time to prevent confusion due to time zone crossing. See the EJM826 flight status page for this flight to view local times or setup timezone preferences in your user account.

Time Position Orientation Groundspeed Altitude Reporting Facility
EDT Latitude Longitude Course Direction KTS MPH feet Rate Location/Type
03:30PM 29.6606 -95.2669 321° Northwest 159 183 700  Level Houston Center
03:31PM 29.6975 -95.3008 321° Northwest 200 230 2,700 2,340 Climbing Houston Center
03:32PM 29.7275 -95.3356 315° West 200 230 4,700 2,640 Climbing Houston Center
03:32PM 29.7358 -95.3539 298° West 227 261 5,400 1,740 Climbing Houston Center
03:33PM 29.7539 -95.4081 291° West 246 283 6,500 1,740 Climbing Houston Center
03:33PM 29.7631 -95.4444 286° West 288 331 7,400 2,220 Climbing Houston Center
03:34PM 29.7769 -95.4936 288° West 277 319 8,800 2,340 Climbing Houston Center
03:34PM 29.7878 -95.5306 289° West 281 323 9,800 1,980 Climbing Houston Center
03:35PM 29.8039 -95.5869 288° West 284 327 10,900 1,740 Climbing Houston Center
03:36PM 29.8275 -95.6717 288° West 298 343 12,900 2,100 Climbing Houston Center
03:37PM 29.8531 -95.7797 285° West 293 337 15,300 1,860 Climbing Houston Center
03:38PM 29.8831 -95.8744 290° West 312 359 16,800 1,320 Climbing Houston Center
03:39PM 29.9081 -95.9708 287° West 318 366 18,100 1,380 Climbing Houston Center
03:40PM 29.9300 -96.0808 283° West 330 380 19,700 1,440 Climbing Houston Center
03:41PM 29.9353 -96.1897 273° West 343 395 21,100 1,320 Climbing Houston Center
03:42PM 29.9464 -96.2994 277° West 348 400 22,500 1,260 Climbing Houston Center
03:43PM 29.9733 -96.4083 286° West 354 407 23,800 1,440 Climbing Houston Center
03:44PM 30.0031 -96.5436 284° West 364 419 25,500 1,440 Climbing Houston Center
03:45PM 30.0292 -96.6561 285° West 365 420 26,800 1,200 Climbing Houston Center
03:46PM 30.0556 -96.7711 285° West 373 429 28,000 1,080 Climbing Houston Center
03:47PM 30.0669 -96.8917 276° West 380 437 29,100 1,080 Climbing Houston Center
03:48PM 30.0683 -97.0131 271° West 381 438 30,300 1,200 Climbing Houston Center
03:49PM 30.0700 -97.1628 271° West 390 449 31,600 1,140 Climbing Houston Center
03:50PM 30.0725 -97.2889 271° West 395 455 32,700 1,200 Climbing Houston Center
03:51PM 30.0989 -97.3994 285° West 388 447 34,100 1,320 Climbing Houston Center
03:52PM 30.1314 -97.5400 285° West 385 443 35,500 1,200 Climbing Houston Center
03:53PM 30.1594 -97.6594 285° West 382 440 36,700 1,020 Climbing Houston Center
03:54PM 30.1869 -97.7800 285° West 381 438 37,700 840 Climbing Houston Center
03:55PM 30.2150 -97.9022 285° West 379 436 38,500 900 Climbing Houston Center
03:57PM 30.2447 -98.0300 285° West 382 440 39,600 720 Climbing Houston Center
03:58PM 30.2706 -98.1475 284° West 379 436 40,000 180 Climbing Houston Center
03:59PM 30.2986 -98.2789 284° West 388 447 40,000  Level Houston Center
04:00PM 30.3247 -98.3914 285° West 407 468 40,000  Level Houston Center
04:01PM 30.3589 -98.5453 284° West 418 481 40,000  Level Houston Center
04:02PM 30.3889 -98.6803 284° West 427 491 40,000  Level Houston Center
04:03PM 30.4189 -98.8167 284° West 432 497 40,000  Level Houston Center
04:04PM 30.4492 -98.9536 284° West 433 498 40,000  Level Houston Center
04:05PM 30.4794 -99.0919 284° West 438 504 40,000  Level Houston Center
04:06PM 30.5128 -99.2453 284° West 437 503 40,000  Level Houston Center
04:07PM 30.5408 -99.3811 284° West 437 503 40,000  Level Houston Center
04:08PM 30.5717 -99.5181 285° West 440 506 40,000  Level Houston Center
04:09PM 30.6017 -99.6544 284° West 439 505 40,000  Level Houston Center
04:10PM 30.6272 -99.7886 283° West 428 493 40,000  Level Houston Center
04:11PM 30.6622 -99.9506 284° West 437 503 40,000  Level Houston Center
04:12PM 30.6914 -100.0878 284° West 436 502 40,000  Level Houston Center
04:13PM 30.7194 -100.2256 283° West 440 506 40,000  Level Houston Center
04:14PM 30.7492 -100.3625 284° West 441 507 40,000  Level Houston Center
04:15PM 30.7767 -100.4956 284° West 420 483 40,000  Level Houston Center
04:16PM 30.8094 -100.6625 283° West 435 501 40,000  Level Houston Center
04:17PM 30.8383 -100.8006 284° West 441 507 40,000  Level Houston Center
04:18PM 30.8650 -100.9347 283° West 429 494 40,000  Level Houston Center
04:19PM 30.8931 -101.0736 283° West 441 507 40,000  Level Houston Center
04:20PM 30.9211 -101.2058 284° West 420 483 40,000  Level Houston Center
04:21PM 30.9517 -101.3667 283° West 432 497 40,000  Level Houston Center
04:22PM 30.9764 -101.5056 282° West 435 501 40,000  Level Houston Center
04:23PM 31.0033 -101.6425 283° West 436 502 40,000  Level Houston Center
04:24PM 31.0317 -101.7833 283° West 440 506 40,000  Level Houston Center
04:25PM 31.0583 -101.9181 283° West 431 496 40,000  Level Houston Center
04:27PM 31.0878 -102.0825 282° West 428 493 40,000  Level Houston Center
04:28PM 31.1133 -102.2219 282° West 431 496 40,000  Level Houston Center
04:28PM 31.1375 -102.3375 284° West 432 497 40,000  Level Albuquerque Center
04:29PM 31.1631 -102.4747 282° West 432 497 40,000  Level Albuquerque Center
04:30PM 31.1878 -102.6136 282° West 426 490 40,000  Level Albuquerque Center
04:31PM 31.2131 -102.7494 282° West 427 491 40,000  Level Albuquerque Center
04:33PM 31.2383 -102.8858 282° West 428 493 40,000  Level Albuquerque Center
04:34PM 31.2639 -103.0231 282° West 431 496 40,000  Level Albuquerque Center
04:35PM 31.2931 -103.1864 282° West 430 495 40,000  Level Albuquerque Center
04:36PM 31.3175 -103.3228 282° West 430 495 40,000  Level Albuquerque Center
04:37PM 31.3425 -103.4597 282° West 430 495 40,000  Level Albuquerque Center
04:38PM 31.3669 -103.5961 282° West 430 495 40,000  Level Albuquerque Center
04:39PM 31.3911 -103.7328 282° West 429 494 40,000  Level Albuquerque Center
04:40PM 31.4164 -103.8742 282° West 431 496 40,000  Level Albuquerque Center
04:41PM 31.4408 -104.0111 282° West 431 496 40,000  Level Albuquerque Center
04:42PM 31.4658 -104.1472 282° West 430 495 40,000  Level Albuquerque Center
04:43PM 31.4925 -104.3111 281° West 429 494 40,000  Level Albuquerque Center
04:44PM 31.5172 -104.4478 282° West 430 495 40,000  Level Albuquerque Center
04:45PM 31.5394 -104.5853 281° West 431 496 40,000  Level Albuquerque Center
04:46PM 31.5642 -104.7217 282° West 431 496 40,000  Level Albuquerque Center
04:47PM 31.5878 -104.8600 281° West 433 498 40,000  Level Albuquerque Center
04:48PM 31.6156 -105.0247 281° West 434 499 40,000  Level Albuquerque Center
04:49PM 31.6372 -105.1606 281° West 431 496 40,000  Level Albuquerque Center
04:50PM 31.6586 -105.2964 281° West 429 494 40,000  Level Albuquerque Center
04:51PM 31.6808 -105.4325 281° West 428 493 40,000  Level Albuquerque Center
04:52PM 31.7025 -105.5697 281° West 430 495 40,000  Level Albuquerque Center
04:53PM 31.7300 -105.7325 281° West 427 491 40,000  Level Albuquerque Center
04:54PM 31.7508 -105.8681 280° West 425 489 40,000  Level Albuquerque Center
04:55PM 31.7714 -106.0031 280° West 421 484 40,000  Level Albuquerque Center
04:56PM 31.7931 -106.1372 281° West 420 483 40,000  Level Albuquerque Center
04:57PM 31.8206 -106.2719 284° West 427 491 40,000  Level Albuquerque Center
04:58PM 31.8900 -106.3806 307° West 420 483 40,000  Level Albuquerque Center
04:59PM 31.9731 -106.4856 313° West 421 484 40,000  Level Albuquerque Center
05:00PM 32.0517 -106.5878 312° West 420 483 40,000  Level Albuquerque Center
05:01PM 32.1450 -106.7117 312° West 422 486 40,000  Level Albuquerque Center
05:02PM 32.2233 -106.8153 312° West 424 488 40,000  Level Albuquerque Center
05:04PM 32.3094 -106.9325 311° West 425 489 40,000  Level Albuquerque Center
05:05PM 32.3892 -107.0367 312° West 428 493 40,000  Level Albuquerque Center
05:06PM 32.4553 -107.1289 310° West 430 495 40,000  Level Albuquerque Center
05:07PM 32.5458 -107.2486 312° West 429 494 40,000  Level Albuquerque Center
05:08PM 32.6247 -107.3542 312° West 429 494 40,000  Level Albuquerque Center
05:09PM 32.7036 -107.4608 311° West 430 495 40,000  Level Albuquerque Center
05:10PM 32.7806 -107.5692 310° West 431 496 40,000  Level Albuquerque Center
05:11PM 32.8747 -107.6972 311° West 430 495 40,000  Level Albuquerque Center
05:12PM 32.9528 -107.8047 311° West 430 495 40,000  Level Albuquerque Center
05:13PM 33.0333 -107.9078 313° West 429 494 40,000  Level Albuquerque Center
05:14PM 33.1117 -108.0150 311° West 430 495 40,000  Level Albuquerque Center
05:15PM 33.1906 -108.1219 311° West 431 496 40,000  Level Albuquerque Center
05:16PM 33.2681 -108.2289 311° West 429 494 40,000  Level Albuquerque Center
05:17PM 33.3619 -108.3583 311° West 431 496 40,000  Level Albuquerque Center
05:18PM 33.4389 -108.4653 311° West 429 494 40,000  Level Albuquerque Center
05:19PM 33.5158 -108.5725 311° West 428 493 40,000  Level Albuquerque Center
05:20PM 33.5936 -108.6800 311° West 429 494 40,000  Level Albuquerque Center
05:21PM 33.6703 -108.7875 311° West 428 493 40,000  Level Albuquerque Center
05:22PM 33.7625 -108.9167 311° West 428 493 40,000  Level Albuquerque Center
05:23PM 33.8386 -109.0253 310° West 427 491 40,000  Level Albuquerque Center
05:24PM 33.9150 -109.1339 310° West 427 491 40,000  Level Albuquerque Center
05:25PM 33.9914 -109.2428 310° West 427 491 40,000  Level Albuquerque Center
05:26PM 34.0686 -109.3506 311° West 427 491 40,000  Level Albuquerque Center
05:27PM 34.1539 -109.4733 310° West 428 493 40,000  Level Albuquerque Center
05:28PM 34.2400 -109.5942 311° West 426 490 40,000  Level Albuquerque Center
05:29PM 34.3133 -109.7008 310° West 428 493 40,000  Level Albuquerque Center
05:30PM 34.3867 -109.8069 310° West 429 494 40,000  Level Albuquerque Center
05:31PM 34.4731 -109.9308 310° West 430 495 40,000  Level Albuquerque Center
05:32PM 34.5469 -110.0378 310° West 431 496 40,000  Level Albuquerque Center
05:33PM 34.6333 -110.1639 310° West 433 498 40,000  Level Albuquerque Center
05:34PM 34.7086 -110.2728 310° West 437 503 40,000  Level Albuquerque Center
05:35PM 34.7958 -110.3994 310° West 437 503 40,000  Level Albuquerque Center
05:37PM 34.8694 -110.5067 310° West 435 501 40,000  Level Albuquerque Center
05:38PM 34.9528 -110.6319 309° West 429 494 40,000  Level Albuquerque Center
05:39PM 35.0239 -110.7372 310° West 424 488 40,000  Level Albuquerque Center
05:40PM 35.0697 -110.8600 295° West 436 502 40,000  Level Albuquerque Center
05:41PM 35.1036 -111.0117 285° West 421 484 40,000 -540 Level Albuquerque Center
05:42PM 35.1353 -111.1564 285° West 421 484 38,900 -1,920 Descending Albuquerque Center
05:43PM 35.1825 -111.3781 285° West 424 488 35,100 -2,400 Descending Los Angeles Center
05:44PM 35.2128 -111.5194 285° West 430 495 32,700 -2,340 Descending Los Angeles Center
05:45PM 35.2433 -111.6628 285° West 428 493 30,300 -1,320 Descending Los Angeles Center
05:46PM 35.2719 -111.8044 284° West 430 495 30,000 -180 Descending Los Angeles Center
05:47PM 35.3022 -111.9444 285° West 430 495 30,000  Level Los Angeles Center
05:48PM 35.3317 -112.0850 284° West 429 494 30,000  Level Los Angeles Center
05:49PM 35.3675 -112.2567 284° West 435 501 30,000  Level Los Angeles Center
05:50PM 35.3972 -112.4006 284° West 438 504 30,000  Level Los Angeles Center
05:52PM 35.4264 -112.5422 284° West 436 502 30,000 -120 Level Los Angeles Center
05:53PM 35.4567 -112.6878 284° West 433 498 29,800 -420 Descending Los Angeles Center
05:54PM 35.4856 -112.8314 284° West 433 498 29,200 -660 Descending Los Angeles Center
05:55PM 35.5156 -112.9858 283° West 419 482 28,500 -600 Descending Los Angeles Center
05:56PM 35.5428 -113.1250 284° West 417 480 28,000 -300 Descending Los Angeles Center
05:57PM 35.5703 -113.2597 284° West 410 472 28,000  Level Los Angeles Center
05:58PM 35.5958 -113.3903 284° West 409 471 28,000 -1,020 Level Los Angeles Center
05:59PM 35.6275 -113.5544 283° West 417 480 25,900 -2,280 Descending Los Angeles Center
06:00PM 35.6453 -113.6881 279° West 401 461 23,400 -2,400 Descending Los Angeles Center
06:01PM 35.6642 -113.8136 281° West 383 441 21,100 -2,280 Descending Los Angeles Center
06:02PM 35.6806 -113.9358 279° West 368 423 18,800 -1,980 Descending Los Angeles Center
06:03PM 35.6964 -114.0533 279° West 354 407 17,000 -1,920 Descending Los Angeles Center
06:04PM 35.7153 -114.1914 280° West 344 396 14,900 -2,040 Descending Los Angeles Center
06:04PM 35.7192 -114.2219 279° West 348 400 14,400 -1,800 Descending Los Angeles Center
06:05PM 35.7314 -114.3056 280° West 333 383 13,200 -1,320 Descending Los Angeles Center
06:05PM 35.7283 -114.2892 103° East 329 379 13,400 -1,320 Climbing Los Angeles Center
06:06PM 35.7758 -114.3989 298° West 321 369 11,800 -1,560 Descending Los Angeles Center
06:06PM 35.7789 -114.4008 333° Northwest 330 380 11,800 -660 Level Los Angeles Center
06:07PM 35.8503 -114.4486 332° Northwest 322 371 11,200 -720 Descending Los Angeles Center
06:07PM 35.8556 -114.4497 350° North 320 368 11,100 -720 Descending Los Angeles Center
06:08PM 35.9311 -114.5008 331° Northwest 328 377 10,500 -720 Descending Los Angeles Center
06:08PM 35.9347 -114.5025 340° North 324 373 10,400 -660 Descending Los Angeles Center
06:09PM 36.0197 -114.5589 332° Northwest 316 364 9,800 -540 Descending Los Angeles Center
06:09PM 36.0147 -114.5553 150° Southeast 326 375 9,900 -780 Climbing Los Angeles Center
06:10PM 36.0814 -114.5967 333° Northwest 281 323 9,000 -1,080 Descending Los Angeles Center
06:10PM 36.0931 -114.6061 327° Northwest 274 315 8,800 -1,200 Descending Los Angeles Center
06:11PM 36.1317 -114.6625 310° West 257 296 7,900 -900 Descending Los Angeles Center
06:11PM 36.1300 -114.6553 106° East 262 302 7,900  Level Los Angeles Center
06:12PM 36.1422 -114.7494 279° West 261 300 7,900 -120 Level Los Angeles Center
06:12PM 36.1431 -114.7583 277° West 252 290 7,800 -1,380 Descending Los Angeles Center
06:13PM 36.1514 -114.8503 276° West 275 316 6,500 -1,380 Descending Los Angeles Center
06:13PM 36.1511 -114.8539 265° West 270 311 6,400 -1,440 Descending Los Angeles Center
06:14PM 36.1511 -114.9383 270° West 273 314 5,200 -1,380 Descending Los Angeles Center
06:14PM 36.1514 -114.9472 272° West 274 315 5,000 -1,320 Descending Los Angeles Center
06:15PM 36.1500 -115.0319 269° West 270 311 3,900 -1,080 Descending Los Angeles Center
06:15PM 36.1486 -115.0411 259° West 273 314 3,900 -300 Level Los Angeles Center
06:16PM 36.1492 -115.1069 271° West 191 220 3,600 -420 Descending Los Angeles Center
06:16PM 36.1483 -115.1125 259° West 232 267 3,500 -900 Descending Los Angeles Center
06:17PM 36.1203 -115.1431 221° Southwest 141 162 2,700 -900 Descending Los Angeles Center
06:17PM 36.1161 -115.1433 183° South 179 206 2,600 -360 Descending Los Angeles Center
06:19PM 36.0801 -115.1523 270° West  Level Estimated
06:26PM 36.0801 -115.1523 270° West  Level Estimated